sensor_id;sensor_type;location;lat;lon;timestamp;pressure;altitude;pressure_sealevel;temperature;humidity
9523;BME280;63165;43.016;25.784;2023-09-18T06:37:47;100483.00;;;18.87;97.64
9523;BME280;63165;43.016;25.784;2023-09-18T06:40:16;100595.41;;;19.84;94.99
9523;BME280;63165;43.016;25.784;2023-09-18T07:22:34;100608.31;;;22.50;81.17
9523;BME280;63165;43.016;25.784;2023-09-18T07:25:27;100626.94;;;22.66;78.91
9523;BME280;63165;43.016;25.784;2023-09-18T07:28:13;100561.72;;;22.41;76.34
9523;BME280;63165;43.016;25.784;2023-09-18T07:30:55;100526.72;;;22.16;74.39
9523;BME280;63165;43.016;25.784;2023-09-18T07:33:43;100563.34;;;22.74;74.76
9523;BME280;63165;43.016;25.784;2023-09-18T07:36:27;100476.31;;;22.43;74.14
9523;BME280;63165;43.016;25.784;2023-09-18T07:45:25;100431.31;;;22.67;69.21
9523;BME280;63165;43.016;25.784;2023-09-18T07:47:57;100455.31;;;22.67;65.94
9523;BME280;63165;43.016;25.784;2023-09-18T07:50:26;100618.69;;;23.74;64.66
9523;BME280;63165;43.016;25.784;2023-09-18T07:52:54;100628.09;;;24.23;62.00
9523;BME280;63165;43.016;25.784;2023-09-18T07:55:22;100448.47;;;22.92;61.44
9523;BME280;63165;43.016;25.784;2023-09-18T07:57:50;100433.66;;;23.00;59.44
9523;BME280;63165;43.016;25.784;2023-09-18T08:00:21;100463.63;;;23.20;59.73
9523;BME280;63165;43.016;25.784;2023-09-18T08:02:54;100472.41;;;23.36;59.52
9523;BME280;63165;43.016;25.784;2023-09-18T08:05:26;100548.34;;;24.02;59.59
9523;BME280;63165;43.016;25.784;2023-09-18T08:07:57;100556.84;;;24.22;58.63
9523;BME280;63165;43.016;25.784;2023-09-18T08:10:38;100595.94;;;24.79;57.23
9523;BME280;63165;43.016;25.784;2023-09-18T08:13:07;100610.94;;;24.94;56.82
9523;BME280;63165;43.016;25.784;2023-09-18T08:15:36;100586.41;;;24.75;56.19
9523;BME280;63165;43.016;25.784;2023-09-18T08:18:05;100475.69;;;23.83;56.80
9523;BME280;63165;43.016;25.784;2023-09-18T08:20:33;100606.59;;;24.66;55.79
9523;BME280;63165;43.016;25.784;2023-09-18T08:23:03;100556.97;;;24.75;55.25
9523;BME280;63165;43.016;25.784;2023-09-18T08:25:54;100427.94;;;23.77;55.09
9523;BME280;63165;43.016;25.784;2023-09-18T08:28:34;100448.22;;;23.94;56.07
9523;BME280;63165;43.016;25.784;2023-09-18T08:31:25;100396.53;;;24.08;55.00
9523;BME280;63165;43.016;25.784;2023-09-18T08:33:56;100425.72;;;24.11;55.20
9523;BME280;63165;43.016;25.784;2023-09-18T08:36:24;100465.25;;;24.46;51.61
9523;BME280;63165;43.016;25.784;2023-09-18T08:38:52;100559.03;;;25.48;50.70
9523;BME280;63165;43.016;25.784;2023-09-18T08:41:21;100423.47;;;24.57;51.00
9523;BME280;63165;43.016;25.784;2023-09-18T08:43:59;100345.34;;;24.39;51.24
9523;BME280;63165;43.016;25.784;2023-09-18T08:46:37;100500.19;;;25.47;50.13
9523;BME280;63165;43.016;25.784;2023-09-18T08:49:11;100392.75;;;24.63;50.55
9523;BME280;63165;43.016;25.784;2023-09-18T08:51:42;100414.47;;;24.84;50.53
9523;BME280;63165;43.016;25.784;2023-09-18T08:54:11;100562.03;;;26.06;49.19
9523;BME280;63165;43.016;25.784;2023-09-18T08:56:41;100435.53;;;25.14;47.90
9523;BME280;63165;43.016;25.784;2023-09-18T08:59:30;100385.50;;;25.15;47.67
9523;BME280;63165;43.016;25.784;2023-09-18T09:02:00;100546.97;;;26.17;46.91
9523;BME280;63165;43.016;25.784;2023-09-18T09:04:28;100398.81;;;25.04;46.29
9523;BME280;63165;43.016;25.784;2023-09-18T09:07:03;100613.94;;;26.42;46.05
9523;BME280;63165;43.016;25.784;2023-09-18T09:09:33;100416.16;;;25.11;45.34
9523;BME280;63165;43.016;25.784;2023-09-18T09:12:02;100411.81;;;25.21;45.18
9523;BME280;63165;43.016;25.784;2023-09-18T09:14:30;100393.97;;;25.22;46.52
9523;BME280;63165;43.016;25.784;2023-09-18T09:17:03;100390.75;;;25.16;45.96
9523;BME280;63165;43.016;25.784;2023-09-18T09:19:34;100350.50;;;25.05;45.37
9523;BME280;63165;43.016;25.784;2023-09-18T09:22:05;100543.63;;;25.89;44.00
9523;BME280;63165;43.016;25.784;2023-09-18T09:24:39;100485.13;;;25.20;45.20
9523;BME280;63165;43.016;25.784;2023-09-18T09:27:08;100535.59;;;25.89;44.97
9523;BME280;63165;43.016;25.784;2023-09-18T09:29:36;100608.13;;;26.24;44.91
9523;BME280;63165;43.016;25.784;2023-09-18T09:32:19;100346.47;;;24.99;44.79
9523;BME280;63165;43.016;25.784;2023-09-18T09:34:57;100393.25;;;25.07;44.54
9523;BME280;63165;43.016;25.784;2023-09-18T09:37:30;100356.91;;;25.15;44.71
9523;BME280;63165;43.016;25.784;2023-09-18T09:40:03;100374.34;;;25.21;43.85
9523;BME280;63165;43.016;25.784;2023-09-18T09:42:43;100369.53;;;25.26;43.84
9523;BME280;63165;43.016;25.784;2023-09-18T09:45:15;100371.66;;;25.34;43.53
9523;BME280;63165;43.016;25.784;2023-09-18T09:47:45;100362.78;;;25.33;43.09
9523;BME280;63165;43.016;25.784;2023-09-18T09:50:18;100377.00;;;25.21;42.11
9523;BME280;63165;43.016;25.784;2023-09-18T09:52:51;100360.56;;;25.14;42.41
9523;BME280;63165;43.016;25.784;2023-09-18T09:55:30;100356.47;;;25.22;43.56
9523;BME280;63165;43.016;25.784;2023-09-18T09:58:01;100436.38;;;25.65;43.12
9523;BME280;63165;43.016;25.784;2023-09-18T10:00:45;100359.06;;;25.23;42.47
9523;BME280;63165;43.016;25.784;2023-09-18T10:03:17;100366.28;;;25.34;42.31
9523;BME280;63165;43.016;25.784;2023-09-18T10:05:51;100356.03;;;25.28;43.04
9523;BME280;63165;43.016;25.784;2023-09-18T10:08:37;100345.75;;;25.34;42.69
9523;BME280;63165;43.016;25.784;2023-09-18T10:11:22;100356.47;;;25.34;42.69
9523;BME280;63165;43.016;25.784;2023-09-18T10:13:55;100465.63;;;26.40;42.56
9523;BME280;63165;43.016;25.784;2023-09-18T10:16:28;100359.81;;;25.49;41.09
9523;BME280;63165;43.016;25.784;2023-09-18T10:33:04;100469.66;;;26.46;39.78
9523;BME280;63165;43.016;25.784;2023-09-18T10:35:34;100454.41;;;26.46;39.13
9523;BME280;63165;43.016;25.784;2023-09-18T10:38:05;100477.78;;;26.68;39.34
9523;BME280;63165;43.016;25.784;2023-09-18T10:40:36;100414.53;;;26.42;39.22
9523;BME280;63165;43.016;25.784;2023-09-18T10:43:32;100507.03;;;26.96;39.75
9523;BME280;63165;43.016;25.784;2023-09-18T10:46:13;100468.19;;;26.88;38.85
9523;BME280;63165;43.016;25.784;2023-09-18T10:55:34;100479.91;;;27.10;38.86
9523;BME280;63165;43.016;25.784;2023-09-18T10:58:04;100458.69;;;27.18;38.51
9523;BME280;63165;43.016;25.784;2023-09-18T11:00:50;100450.38;;;27.10;38.48
9523;BME280;63165;43.016;25.784;2023-09-18T11:03:22;100393.84;;;26.89;38.25
9523;BME280;63165;43.016;25.784;2023-09-18T11:06:03;100489.66;;;27.67;37.56
9523;BME280;63165;43.016;25.784;2023-09-18T11:08:33;100441.94;;;27.48;36.87
9523;BME280;63165;43.016;25.784;2023-09-18T11:11:07;100494.28;;;27.77;35.84
9523;BME280;63165;43.016;25.784;2023-09-18T11:13:40;100486.47;;;27.74;36.14
9523;BME280;63165;43.016;25.784;2023-09-18T11:16:16;100459.00;;;27.59;36.12
9523;BME280;63165;43.016;25.784;2023-09-18T11:18:47;100446.72;;;27.45;35.79
9523;BME280;63165;43.016;25.784;2023-09-18T11:21:16;100490.03;;;27.74;35.40
9523;BME280;63165;43.016;25.784;2023-09-18T11:23:44;100452.44;;;27.52;35.95
9523;BME280;63165;43.016;25.784;2023-09-18T11:26:15;100465.44;;;27.79;36.25
9523;BME280;63165;43.016;25.784;2023-09-18T11:28:47;100449.59;;;27.64;36.62
9523;BME280;63165;43.016;25.784;2023-09-18T11:31:16;100424.56;;;27.64;35.06
9523;BME280;63165;43.016;25.784;2023-09-18T11:33:43;100395.66;;;27.45;36.50
9523;BME280;63165;43.016;25.784;2023-09-18T11:36:12;100447.34;;;27.92;36.53
9523;BME280;63165;43.016;25.784;2023-09-18T11:38:55;100457.88;;;28.16;36.69
9523;BME280;63165;43.016;25.784;2023-09-18T11:41:26;100476.22;;;28.22;36.07
9523;BME280;63165;43.016;25.784;2023-09-18T11:44:32;100468.00;;;28.24;35.85
9523;BME280;63165;43.016;25.784;2023-09-18T11:47:02;100413.72;;;27.86;34.44
9523;BME280;63165;43.016;25.784;2023-09-18T11:49:30;100369.78;;;27.76;34.48
9523;BME280;63165;43.016;25.784;2023-09-18T11:51:59;100429.94;;;28.07;34.87
9523;BME280;63165;43.016;25.784;2023-09-18T11:54:27;100331.34;;;27.53;34.06
9523;BME280;63165;43.016;25.784;2023-09-18T11:56:57;100406.94;;;28.03;34.28
9523;BME280;63165;43.016;25.784;2023-09-18T11:59:35;100405.72;;;28.07;34.65
9523;BME280;63165;43.016;25.784;2023-09-18T12:02:03;100430.91;;;28.27;34.35
9523;BME280;63165;43.016;25.784;2023-09-18T12:04:34;100412.06;;;28.27;34.58
9523;BME280;63165;43.016;25.784;2023-09-18T12:07:03;100394.38;;;28.25;33.43
9523;BME280;63165;43.016;25.784;2023-09-18T12:09:31;100415.75;;;28.48;34.09
9523;BME280;63165;43.016;25.784;2023-09-18T12:12:01;100385.69;;;28.42;34.62
9523;BME280;63165;43.016;25.784;2023-09-18T12:14:31;100414.44;;;28.63;33.97
9523;BME280;63165;43.016;25.784;2023-09-18T12:17:00;100362.31;;;28.43;34.48
9523;BME280;63165;43.016;25.784;2023-09-18T12:19:30;100427.78;;;28.95;34.11
9523;BME280;63165;43.016;25.784;2023-09-18T12:22:00;100397.31;;;28.64;33.81
9523;BME280;63165;43.016;25.784;2023-09-18T12:24:27;100387.06;;;28.58;34.54
9523;BME280;63165;43.016;25.784;2023-09-18T12:26:55;100394.63;;;28.64;34.13
9523;BME280;63165;43.016;25.784;2023-09-18T12:29:26;100375.59;;;28.56;34.84
9523;BME280;63165;43.016;25.784;2023-09-18T12:31:53;100383.22;;;28.51;33.94
9523;BME280;63165;43.016;25.784;2023-09-18T12:34:21;100398.03;;;28.66;34.16
9523;BME280;63165;43.016;25.784;2023-09-18T12:36:50;100449.38;;;28.74;33.79
9523;BME280;63165;43.016;25.784;2023-09-18T12:39:20;100386.75;;;28.82;34.38
9523;BME280;63165;43.016;25.784;2023-09-18T12:41:48;100410.56;;;28.77;34.17
9523;BME280;63165;43.016;25.784;2023-09-18T12:44:16;100414.63;;;29.02;33.31
9523;BME280;63165;43.016;25.784;2023-09-18T12:46:47;100411.94;;;29.02;33.21
9523;BME280;63165;43.016;25.784;2023-09-18T12:49:18;100407.81;;;28.98;33.81
9523;BME280;63165;43.016;25.784;2023-09-18T12:51:55;100416.56;;;28.80;33.49
9523;BME280;63165;43.016;25.784;2023-09-18T12:54:36;100406.69;;;29.00;34.14
9523;BME280;63165;43.016;25.784;2023-09-18T12:57:05;100406.00;;;29.08;34.55
9523;BME280;63165;43.016;25.784;2023-09-18T12:59:33;100407.00;;;29.07;33.97
9523;BME280;63165;43.016;25.784;2023-09-18T13:02:03;100434.72;;;28.88;33.24
9523;BME280;63165;43.016;25.784;2023-09-18T13:04:31;100292.47;;;28.11;33.44
9523;BME280;63165;43.016;25.784;2023-09-18T13:07:07;100397.44;;;28.93;33.10
9523;BME280;63165;43.016;25.784;2023-09-18T13:09:34;100396.19;;;28.97;34.23
9523;BME280;63165;43.016;25.784;2023-09-18T13:12:04;100395.91;;;29.00;34.57
9523;BME280;63165;43.016;25.784;2023-09-18T13:14:58;100395.53;;;29.05;33.30
9523;BME280;63165;43.016;25.784;2023-09-18T13:17:38;100388.41;;;29.04;33.03
9523;BME280;63165;43.016;25.784;2023-09-18T13:20:09;100383.88;;;29.04;32.88
9523;BME280;63165;43.016;25.784;2023-09-18T13:22:38;100384.28;;;29.00;33.30
9523;BME280;63165;43.016;25.784;2023-09-18T13:25:06;100277.03;;;28.34;33.51
9523;BME280;63165;43.016;25.784;2023-09-18T13:27:34;100375.50;;;28.98;33.46
9523;BME280;63165;43.016;25.784;2023-09-18T13:30:01;100381.72;;;28.98;34.17
9523;BME280;63165;43.016;25.784;2023-09-18T13:32:34;100369.53;;;28.94;35.14
9523;BME280;63165;43.016;25.784;2023-09-18T13:35:03;100372.06;;;28.86;35.18
9523;BME280;63165;43.016;25.784;2023-09-18T13:37:32;100375.28;;;28.80;35.90
9523;BME280;63165;43.016;25.784;2023-09-18T13:40:00;100326.41;;;28.54;36.72
9523;BME280;63165;43.016;25.784;2023-09-18T13:42:28;100242.88;;;27.82;37.14
9523;BME280;63165;43.016;25.784;2023-09-18T13:44:57;100365.78;;;28.76;37.27
9523;BME280;63165;43.016;25.784;2023-09-18T13:47:26;100385.31;;;28.68;36.23
9523;BME280;63165;43.016;25.784;2023-09-18T13:49:54;100354.81;;;28.46;36.12
9523;BME280;63165;43.016;25.784;2023-09-18T13:52:27;100358.59;;;28.55;36.09
9523;BME280;63165;43.016;25.784;2023-09-18T13:54:55;100245.16;;;27.66;37.36
9523;BME280;63165;43.016;25.784;2023-09-18T13:57:22;100351.28;;;28.46;37.78
9523;BME280;63165;43.016;25.784;2023-09-18T13:59:50;100306.13;;;27.98;37.59
9523;BME280;63165;43.016;25.784;2023-09-18T14:02:19;100367.56;;;28.44;37.18
9523;BME280;63165;43.016;25.784;2023-09-18T14:04:47;100254.53;;;27.72;36.37
9523;BME280;63165;43.016;25.784;2023-09-18T14:07:15;100378.63;;;28.41;37.87
9523;BME280;63165;43.016;25.784;2023-09-18T14:09:44;100347.19;;;28.21;37.16
9523;BME280;63165;43.016;25.784;2023-09-18T14:12:12;100375.59;;;28.35;36.46
9523;BME280;63165;43.016;25.784;2023-09-18T14:14:41;100327.03;;;27.94;36.94
9523;BME280;63165;43.016;25.784;2023-09-18T14:17:08;100340.56;;;28.04;37.28
9523;BME280;63165;43.016;25.784;2023-09-18T14:19:35;100369.75;;;28.30;37.24
9523;BME280;63165;43.016;25.784;2023-09-18T14:24:45;100359.78;;;28.20;36.83
9523;BME280;63165;43.016;25.784;2023-09-18T14:27:14;100354.94;;;28.14;36.49
9523;BME280;63165;43.016;25.784;2023-09-18T14:29:41;100322.81;;;27.80;36.72
9523;BME280;63165;43.016;25.784;2023-09-18T14:32:11;100323.94;;;27.78;37.58
9523;BME280;63165;43.016;25.784;2023-09-18T14:34:38;100285.41;;;27.56;37.46
9523;BME280;63165;43.016;25.784;2023-09-18T14:37:06;100303.47;;;27.65;37.46
9523;BME280;63165;43.016;25.784;2023-09-18T14:39:34;100330.69;;;27.72;36.97
9523;BME280;63165;43.016;25.784;2023-09-18T14:42:03;100338.81;;;27.82;36.69
9523;BME280;63165;43.016;25.784;2023-09-18T14:44:31;100274.78;;;27.34;36.51
9523;BME280;63165;43.016;25.784;2023-09-18T14:46:58;100307.56;;;27.48;36.90
9523;BME280;63165;43.016;25.784;2023-09-18T14:49:26;100327.81;;;27.53;37.35
9523;BME280;63165;43.016;25.784;2023-09-18T14:51:57;100276.06;;;27.07;38.20
9523;BME280;63165;43.016;25.784;2023-09-18T14:54:39;100218.56;;;26.43;38.71
9523;BME280;63165;43.016;25.784;2023-09-18T14:57:23;100157.25;;;26.16;39.50
9523;BME280;63165;43.016;25.784;2023-09-18T14:59:53;100205.28;;;26.30;39.45
9523;BME280;63165;43.016;25.784;2023-09-18T15:02:59;100346.84;;;27.28;40.14
9523;BME280;63165;43.016;25.784;2023-09-18T15:05:29;100343.91;;;27.20;39.83
9523;BME280;63165;43.016;25.784;2023-09-18T15:07:59;100345.13;;;27.16;39.85
9523;BME280;63165;43.016;25.784;2023-09-18T15:10:36;100306.84;;;26.69;40.01
9523;BME280;63165;43.016;25.784;2023-09-18T15:13:09;100354.28;;;27.02;40.22
9523;BME280;63165;43.016;25.784;2023-09-18T15:15:37;100161.97;;;25.67;40.54
9523;BME280;63165;43.016;25.784;2023-09-18T15:18:04;100294.75;;;26.52;40.74
9523;BME280;63165;43.016;25.784;2023-09-18T15:20:41;100361.53;;;26.79;41.07
9523;BME280;63165;43.016;25.784;2023-09-18T15:29:56;100272.81;;;26.02;41.60
9523;BME280;63165;43.016;25.784;2023-09-18T15:38:51;100277.50;;;25.87;43.78
9523;BME280;63165;43.016;25.784;2023-09-18T15:41:54;100333.63;;;26.24;44.84
9523;BME280;63165;43.016;25.784;2023-09-18T15:48:11;100295.50;;;25.85;46.96
9523;BME280;63165;43.016;25.784;2023-09-18T15:50:56;100325.44;;;26.03;48.79
9523;BME280;63165;43.016;25.784;2023-09-18T15:53:47;100332.56;;;25.91;50.38
9523;BME280;63165;43.016;25.784;2023-09-18T16:00:12;100260.28;;;25.18;51.97
9523;BME280;63165;43.016;25.784;2023-09-18T16:02:58;100260.44;;;25.04;52.98
9523;BME280;63165;43.016;25.784;2023-09-18T16:09:14;100129.25;;;23.95;53.97
9523;BME280;63165;43.016;25.784;2023-09-18T16:12:05;100176.06;;;24.13;54.99
9523;BME280;63165;43.016;25.784;2023-09-18T16:15:21;100282.19;;;24.63;55.19
9523;BME280;63165;43.016;25.784;2023-09-18T16:18:04;100265.41;;;24.48;55.35
9523;BME280;63165;43.016;25.784;2023-09-18T16:20:39;100144.84;;;23.50;55.96
9523;BME280;63165;43.016;25.784;2023-09-18T16:23:07;100316.56;;;24.43;56.68
9523;BME280;63165;43.016;25.784;2023-09-18T16:25:37;100168.66;;;23.40;56.61
9523;BME280;63165;43.016;25.784;2023-09-18T16:28:04;100253.16;;;23.54;56.55
9523;BME280;63165;43.016;25.784;2023-09-18T16:30:32;100307.22;;;23.97;56.45
9523;BME280;63165;43.016;25.784;2023-09-18T16:33:00;100207.72;;;23.28;58.91
9523;BME280;63165;43.016;25.784;2023-09-18T16:35:27;100130.09;;;22.37;59.30
9523;BME280;63165;43.016;25.784;2023-09-18T16:37:55;100282.81;;;23.36;59.71
9523;BME280;63165;43.016;25.784;2023-09-18T16:40:24;100256.88;;;23.11;61.15
9523;BME280;63165;43.016;25.784;2023-09-18T16:42:54;100298.84;;;23.36;62.39
9523;BME280;63165;43.016;25.784;2023-09-18T16:45:24;100084.75;;;21.95;63.22
9523;BME280;63165;43.016;25.784;2023-09-18T16:47:52;100218.53;;;22.58;64.03
9523;BME280;63165;43.016;25.784;2023-09-18T16:50:23;100302.56;;;22.92;64.92
9523;BME280;63165;43.016;25.784;2023-09-18T16:52:53;100285.72;;;22.20;65.58
9523;BME280;63165;43.016;25.784;2023-09-18T16:55:23;100166.13;;;21.42;65.77
9523;BME280;63165;43.016;25.784;2023-09-18T16:58:02;100259.97;;;21.76;65.55
9523;BME280;63165;43.016;25.784;2023-09-18T17:00:43;100140.59;;;21.23;65.86
9523;BME280;63165;43.016;25.784;2023-09-18T17:03:10;100287.88;;;21.99;66.33
9523;BME280;63165;43.016;25.784;2023-09-18T17:05:38;100286.31;;;21.80;66.97
9523;BME280;63165;43.016;25.784;2023-09-18T17:08:05;100238.09;;;21.24;67.64
9523;BME280;63165;43.016;25.784;2023-09-18T17:10:33;100325.81;;;21.88;67.53
9523;BME280;63165;43.016;25.784;2023-09-18T17:13:02;100147.25;;;20.70;67.99
9523;BME280;63165;43.016;25.784;2023-09-18T17:15:30;100326.59;;;21.44;68.25
9523;BME280;63165;43.016;25.784;2023-09-18T17:17:59;100277.59;;;21.00;69.12
9523;BME280;63165;43.016;25.784;2023-09-18T17:20:30;100413.06;;;21.52;69.71
9523;BME280;63165;43.016;25.784;2023-09-18T17:22:57;100160.06;;;19.98;70.41
9523;BME280;63165;43.016;25.784;2023-09-18T17:25:25;100208.13;;;20.43;70.79
9523;BME280;63165;43.016;25.784;2023-09-18T17:27:53;100233.66;;;20.45;71.74
9523;BME280;63165;43.016;25.784;2023-09-18T17:30:23;100355.19;;;21.08;71.95
9523;BME280;63165;43.016;25.784;2023-09-18T17:32:52;100236.88;;;20.34;71.82
9523;BME280;63165;43.016;25.784;2023-09-18T17:35:19;100190.94;;;19.83;72.62
9523;BME280;63165;43.016;25.784;2023-09-18T17:37:47;100220.94;;;20.19;72.37
9523;BME280;63165;43.016;25.784;2023-09-18T17:40:14;100197.59;;;19.74;72.45
9523;BME280;63165;43.016;25.784;2023-09-18T17:42:47;100204.00;;;19.53;73.17
9523;BME280;63165;43.016;25.784;2023-09-18T17:45:16;100344.44;;;20.27;73.28
9523;BME280;63165;43.016;25.784;2023-09-18T17:47:46;100167.63;;;19.20;73.83
9523;BME280;63165;43.016;25.784;2023-09-18T17:50:17;100329.97;;;20.00;73.95
9523;BME280;63165;43.016;25.784;2023-09-18T17:52:45;100340.00;;;20.10;74.71
9523;BME280;63165;43.016;25.784;2023-09-18T17:55:12;100407.38;;;20.09;74.83
9523;BME280;63165;43.016;25.784;2023-09-18T17:57:43;100283.38;;;19.57;75.26
9523;BME280;63165;43.016;25.784;2023-09-18T18:00:12;100318.50;;;19.63;75.64
9523;BME280;63165;43.016;25.784;2023-09-18T18:02:41;100337.88;;;19.65;75.73
9523;BME280;63165;43.016;25.784;2023-09-18T18:05:13;100272.09;;;19.35;75.30
9523;BME280;63165;43.016;25.784;2023-09-18T18:07:42;100245.72;;;19.14;75.28
9523;BME280;63165;43.016;25.784;2023-09-18T18:10:23;100312.94;;;18.94;75.83
9523;BME280;63165;43.016;25.784;2023-09-18T18:13:04;100376.81;;;19.28;76.14
9523;BME280;63165;43.016;25.784;2023-09-18T18:15:35;100198.56;;;18.47;76.66
9523;BME280;63165;43.016;25.784;2023-09-18T18:18:16;100218.91;;;18.46;77.07
9523;BME280;63165;43.016;25.784;2023-09-18T18:21:23;100266.41;;;18.30;77.14
9523;BME280;63165;43.016;25.784;2023-09-18T18:23:51;100310.56;;;18.69;77.70
9523;BME280;63165;43.016;25.784;2023-09-18T18:26:32;100261.19;;;18.48;77.76
9523;BME280;63165;43.016;25.784;2023-09-18T18:29:02;100182.19;;;17.99;78.03
9523;BME280;63165;43.016;25.784;2023-09-18T18:31:34;100198.44;;;18.10;78.79
9523;BME280;63165;43.016;25.784;2023-09-18T18:34:02;100329.16;;;18.49;79.17
9523;BME280;63165;43.016;25.784;2023-09-18T18:36:51;100267.63;;;18.02;78.94
9523;BME280;63165;43.016;25.784;2023-09-18T18:39:30;100210.34;;;17.81;78.83
9523;BME280;63165;43.016;25.784;2023-09-18T18:42:12;100277.00;;;18.30;79.33
9523;BME280;63165;43.016;25.784;2023-09-18T18:44:48;100215.56;;;17.62;79.13
9523;BME280;63165;43.016;25.784;2023-09-18T18:47:19;100379.06;;;18.78;79.04
9523;BME280;63165;43.016;25.784;2023-09-18T18:49:46;100283.28;;;18.09;79.45
9523;BME280;63165;43.016;25.784;2023-09-18T18:52:29;100434.78;;;18.77;79.55
9523;BME280;63165;43.016;25.784;2023-09-18T18:55:02;100409.72;;;18.65;80.31
9523;BME280;63165;43.016;25.784;2023-09-18T18:57:37;100483.03;;;18.65;80.00
9523;BME280;63165;43.016;25.784;2023-09-18T19:00:20;100277.28;;;17.83;79.93
9523;BME280;63165;43.016;25.784;2023-09-18T19:02:47;100229.03;;;17.35;80.16
9523;BME280;63165;43.016;25.784;2023-09-18T19:05:15;100376.03;;;18.07;80.48
9523;BME280;63165;43.016;25.784;2023-09-18T19:11:15;100210.53;;;16.93;80.88
9523;BME280;63165;43.016;25.784;2023-09-18T19:13:46;100395.91;;;17.95;81.03
9523;BME280;63165;43.016;25.784;2023-09-18T19:16:28;100474.00;;;18.07;82.15
9523;BME280;63165;43.016;25.784;2023-09-18T19:19:09;100429.78;;;17.87;82.34
9523;BME280;63165;43.016;25.784;2023-09-18T19:21:51;100380.84;;;17.75;82.54
9523;BME280;63165;43.016;25.784;2023-09-18T19:24:32;100212.41;;;16.43;82.98
